Time;durP1;ratioP1;P1;durP2;ratioP2;P2;SDS_P1;SDS_P2;PMS_P1;PMS_P2;Temp;Humidity;BMP_temperature;BMP_pressure;BME280_temperature;BME280_humidity;BME280_pressure;Samples;Min_cycle;Max_cycle;Signal;HPM_P1;HPM_P2
2022/12/15 00:38:56;;;;;;;271.47;77.77;;;;;;;;;;5069155;28;20768;-54
2022/12/15 00:41:22;;;;;;;249.30;84.43;;;;;;;;;;5061817;28;20214;-53
2022/12/15 00:43:48;;;;;;;245.00;79.77;;;;;;;;;;5080294;28;20231;-52
2022/12/15 00:48:59;;;;;;;286.07;100.17;;;;;;;;;;5072158;28;20202;-52
2022/12/15 01:21:41;;;;;;;277.87;53.53;;;;;;;;;;5065351;28;20221;-53
2022/12/15 01:24:07;;;;;;;294.43;55.63;;;;;;;;;;5049861;28;20239;-53
2022/12/15 01:26:33;;;;;;;258.50;49.67;;;;;;;;;;5047282;28;20219;-53
2022/12/15 01:28:59;;;;;;;288.10;55.80;;;;;;;;;;5051586;28;20208;-53
2022/12/15 01:31:25;;;;;;;297.40;61.83;;;;;;;;;;5042094;28;20340;-53
2022/12/15 01:33:54;;;;;;;272.57;51.13;;;;;;;;;;5044574;28;20615;-53
2022/12/15 01:36:20;;;;;;;298.23;57.83;;;;;;;;;;5048000;28;20220;-53
2022/12/15 01:38:45;;;;;;;296.10;56.57;;;;;;;;;;5050255;28;20215;-53
2022/12/15 01:41:12;;;;;;;308.83;62.77;;;;;;;;;;5049847;28;20749;-53
2022/12/15 01:43:39;;;;;;;323.90;62.53;;;;;;;;;;5047058;28;20192;-53
2022/12/15 01:46:19;;;;;;;280.27;57.40;;;;;;;;;;5066797;28;20175;-53
2022/12/15 01:48:45;;;;;;;314.60;65.20;;;;;;;;;;5051400;28;20560;-53
2022/12/15 01:51:19;;;;;;;286.67;58.87;;;;;;;;;;5074548;28;20286;-53
2022/12/15 01:53:49;;;;;;;285.40;56.03;;;;;;;;;;5060589;28;20246;-53
2022/12/15 01:56:16;;;;;;;272.17;53.43;;;;;;;;;;5065335;28;20304;-53
2022/12/15 01:58:43;;;;;;;252.87;46.13;;;;;;;;;;5061804;28;20179;-53
2022/12/15 02:01:09;;;;;;;260.70;51.43;;;;;;;;;;5052348;28;20171;-53
2022/12/15 02:03:37;;;;;;;306.23;66.13;;;;;;;;;;5062537;28;20211;-53
2022/12/15 02:06:03;;;;;;;286.80;54.20;;;;;;;;;;5065064;28;20333;-53
2022/12/15 02:08:29;;;;;;;270.27;55.03;;;;;;;;;;5062266;28;20261;-53
2022/12/15 02:11:10;;;;;;;308.90;57.57;;;;;;;;;;5060348;28;20319;-53
2022/12/15 02:13:56;;;;;;;262.53;50.27;;;;;;;;;;5041709;28;20210;-53
2022/12/15 02:16:31;;;;;;;263.93;53.10;;;;;;;;;;5043770;28;20237;-53
2022/12/15 02:19:20;;;;;;;305.90;56.87;;;;;;;;;;5042278;28;20217;-53
2022/12/15 02:21:55;;;;;;;305.57;58.10;;;;;;;;;;5060509;28;20218;-53
2022/12/15 02:24:39;;;;;;;287.67;53.17;;;;;;;;;;5064187;28;20225;-53
2022/12/15 02:27:24;;;;;;;325.20;65.47;;;;;;;;;;5064177;28;21148;-53
2022/12/15 02:30:08;;;;;;;288.27;52.73;;;;;;;;;;5063157;28;20207;-53
2022/12/15 02:32:42;;;;;;;285.17;54.00;;;;;;;;;;5064165;28;20324;-53
2022/12/15 02:35:13;;;;;;;322.70;61.17;;;;;;;;;;5063957;28;20210;-53
2022/12/15 02:37:39;;;;;;;300.20;54.83;;;;;;;;;;5063435;28;20301;-53
2022/12/15 02:40:06;;;;;;;303.13;53.63;;;;;;;;;;5061233;28;20186;-53
2022/12/15 02:42:34;;;;;;;292.77;56.23;;;;;;;;;;5063369;28;20225;-53
2022/12/15 02:45:03;;;;;;;271.83;56.43;;;;;;;;;;5065515;28;20678;-53
2022/12/15 02:47:47;;;;;;;286.73;52.50;;;;;;;;;;5062335;28;20215;-53
2022/12/15 02:50:32;;;;;;;328.57;62.10;;;;;;;;;;5063569;28;20556;-53
2022/12/15 02:53:04;;;;;;;310.27;61.30;;;;;;;;;;5061163;28;20222;-53
2022/12/15 02:55:36;;;;;;;269.17;51.00;;;;;;;;;;5064224;28;20226;-53
2022/12/15 02:58:01;;;;;;;287.17;54.00;;;;;;;;;;5064506;28;20175;-53
2022/12/15 03:00:30;;;;;;;291.80;54.00;;;;;;;;;;5064211;28;20259;-53
2022/12/15 03:02:56;;;;;;;297.00;56.60;;;;;;;;;;5048637;28;20264;-53
2022/12/15 03:05:23;;;;;;;304.07;60.20;;;;;;;;;;5049802;28;20336;-53
2022/12/15 03:07:51;;;;;;;291.10;49.93;;;;;;;;;;5048450;28;20230;-53
2022/12/15 03:10:17;;;;;;;298.03;57.60;;;;;;;;;;5063563;28;20187;-53
2022/12/15 03:12:44;;;;;;;258.13;53.03;;;;;;;;;;5062199;28;20218;-53
2022/12/15 03:15:10;;;;;;;264.63;50.93;;;;;;;;;;5062714;28;20210;-53
2022/12/15 03:17:37;;;;;;;273.17;52.60;;;;;;;;;;5057616;28;20272;-53
2022/12/15 03:20:03;;;;;;;270.00;51.80;;;;;;;;;;5050149;28;20678;-53
2022/12/15 03:22:29;;;;;;;280.47;54.67;;;;;;;;;;5063526;28;20675;-53
2022/12/15 03:24:55;;;;;;;298.40;52.93;;;;;;;;;;5064028;28;20175;-53
2022/12/15 03:27:21;;;;;;;284.70;52.47;;;;;;;;;;5054826;28;20446;-53
2022/12/15 03:29:47;;;;;;;332.80;62.27;;;;;;;;;;5045534;28;20269;-53
2022/12/15 03:32:13;;;;;;;265.33;47.67;;;;;;;;;;5049930;28;20838;-53
2022/12/15 03:34:39;;;;;;;272.93;53.70;;;;;;;;;;5062499;28;20236;-53
2022/12/15 03:37:05;;;;;;;258.80;49.13;;;;;;;;;;5058060;28;20205;-53
2022/12/15 03:39:31;;;;;;;293.10;53.47;;;;;;;;;;5061180;28;20732;-53
2022/12/15 03:41:57;;;;;;;310.63;55.03;;;;;;;;;;5061416;28;20218;-53
2022/12/15 03:44:23;;;;;;;319.17;57.27;;;;;;;;;;5064044;28;20528;-53
2022/12/15 03:46:49;;;;;;;311.57;57.03;;;;;;;;;;5062911;28;20232;-53
2022/12/15 03:49:15;;;;;;;277.40;55.43;;;;;;;;;;5062650;28;20196;-53
2022/12/15 03:51:41;;;;;;;323.00;59.10;;;;;;;;;;5063375;28;20225;-53
2022/12/15 03:54:07;;;;;;;331.10;60.63;;;;;;;;;;5060088;28;20271;-53
2022/12/15 03:56:33;;;;;;;289.63;52.03;;;;;;;;;;5060166;28;20235;-53
2022/12/15 03:58:59;;;;;;;285.33;52.80;;;;;;;;;;5061241;28;20237;-53
2022/12/15 04:01:24;;;;;;;328.57;59.97;;;;;;;;;;5053282;28;20198;-53
2022/12/15 04:03:50;;;;;;;291.53;54.60;;;;;;;;;;5046850;28;20266;-53
2022/12/15 04:06:16;;;;;;;320.33;59.17;;;;;;;;;;5057600;28;20210;-53
2022/12/15 04:08:42;;;;;;;303.63;62.17;;;;;;;;;;5062511;28;20207;-53
2022/12/15 04:11:08;;;;;;;301.20;55.63;;;;;;;;;;5063266;28;20211;-53
2022/12/15 04:13:34;;;;;;;307.27;57.13;;;;;;;;;;5063571;28;20630;-53
2022/12/15 04:16:03;;;;;;;351.53;65.23;;;;;;;;;;5063902;28;20178;-53
2022/12/15 04:18:29;;;;;;;256.93;48.03;;;;;;;;;;5061604;28;20203;-53
2022/12/15 04:20:55;;;;;;;244.27;50.33;;;;;;;;;;5060666;28;20290;-53
2022/12/15 04:23:21;;;;;;;320.80;62.07;;;;;;;;;;5063638;28;20222;-54
2022/12/15 05:31:54;;;;;;;255.67;46.50;;;;;;;;;;5045186;28;20291;-53
2022/12/15 05:34:25;;;;;;;262.10;47.57;;;;;;;;;;5048868;28;20199;-53
2022/12/15 05:36:51;;;;;;;239.30;42.53;;;;;;;;;;5046035;28;20246;-53
2022/12/15 05:39:17;;;;;;;240.07;44.20;;;;;;;;;;5052074;28;20211;-52
2022/12/15 05:41:43;;;;;;;288.83;51.83;;;;;;;;;;5047964;28;20215;-53
2022/12/15 05:44:09;;;;;;;277.60;53.37;;;;;;;;;;5045808;28;20323;-53
2022/12/15 05:46:36;;;;;;;296.20;54.07;;;;;;;;;;5051903;28;20681;-53
2022/12/15 05:49:04;;;;;;;320.30;57.93;;;;;;;;;;5066563;28;20185;-53
2022/12/15 05:51:30;;;;;;;312.37;55.13;;;;;;;;;;5065586;28;20221;-53
2022/12/15 05:53:55;;;;;;;283.90;52.33;;;;;;;;;;5065883;28;20464;-53
2022/12/15 05:56:21;;;;;;;308.27;56.60;;;;;;;;;;5064448;28;20250;-53
2022/12/15 05:58:47;;;;;;;308.33;55.73;;;;;;;;;;5064525;28;20639;-53
2022/12/15 06:01:15;;;;;;;305.10;55.90;;;;;;;;;;5057525;28;20183;-53
2022/12/15 06:03:41;;;;;;;315.53;54.77;;;;;;;;;;5057730;28;20238;-53
2022/12/15 06:06:08;;;;;;;351.10;62.83;;;;;;;;;;5053639;28;20214;-53
2022/12/15 06:08:35;;;;;;;279.13;50.23;;;;;;;;;;5055429;28;20222;-53
2022/12/15 06:11:01;;;;;;;335.43;63.67;;;;;;;;;;5051517;28;20219;-53
2022/12/15 06:13:30;;;;;;;326.13;58.93;;;;;;;;;;5049459;28;20213;-53
2022/12/15 06:15:59;;;;;;;323.73;60.63;;;;;;;;;;5058159;28;20250;-54
2022/12/15 06:18:27;;;;;;;295.33;59.90;;;;;;;;;;5055534;28;20272;-53
2022/12/15 06:21:00;;;;;;;309.47;57.87;;;;;;;;;;5059585;28;21127;-54
2022/12/15 06:23:31;;;;;;;291.87;57.07;;;;;;;;;;5060531;28;20242;-54
2022/12/15 06:25:58;;;;;;;291.00;54.80;;;;;;;;;;5059345;28;20702;-54
2022/12/15 06:28:24;;;;;;;308.13;60.27;;;;;;;;;;5058358;28;20210;-54
2022/12/15 06:30:51;;;;;;;306.47;58.53;;;;;;;;;;5041864;28;20253;-54
2022/12/15 06:33:17;;;;;;;338.53;73.93;;;;;;;;;;5042983;28;20322;-53
2022/12/15 06:35:43;;;;;;;274.80;58.10;;;;;;;;;;5044203;28;20211;-54
2022/12/15 06:38:09;;;;;;;387.75;118.45;;;;;;;;;;5044541;28;20747;-54
2022/12/15 06:40:35;;;;;;;428.40;100.20;;;;;;;;;;5047217;28;20185;-53
2022/12/15 06:43:00;;;;;;;406.27;96.57;;;;;;;;;;5048715;28;20667;-53
2022/12/15 06:45:26;;;;;;;433.27;117.20;;;;;;;;;;5042282;28;20241;-54
2022/12/15 06:47:52;;;;;;;293.60;88.83;;;;;;;;;;5042053;28;20227;-55
2022/12/15 06:50:18;;;;;;;664.30;211.77;;;;;;;;;;5033402;28;20214;-54
2022/12/15 06:52:44;;;;;;;371.07;107.17;;;;;;;;;;5019803;28;20230;-55
2022/12/15 06:55:10;;;;;;;367.77;116.57;;;;;;;;;;5028547;28;20773;-54
2022/12/15 06:57:37;;;;;;;353.27;106.13;;;;;;;;;;5018027;28;20211;-54
2022/12/15 07:00:04;;;;;;;370.03;112.70;;;;;;;;;;5029359;28;20446;-53
2022/12/15 07:02:31;;;;;;;368.87;112.23;;;;;;;;;;5020791;28;21501;-53
2022/12/15 07:04:57;;;;;;;383.43;117.03;;;;;;;;;;5034461;28;20215;-54
2022/12/15 07:07:23;;;;;;;521.93;166.67;;;;;;;;;;5036420;28;20685;-54
2022/12/15 07:09:49;;;;;;;419.20;126.87;;;;;;;;;;5043461;28;20232;-54
2022/12/15 07:12:15;;;;;;;449.10;130.53;;;;;;;;;;5034247;28;20261;-54
2022/12/15 07:14:41;;;;;;;332.30;98.80;;;;;;;;;;5026599;28;20262;-53
2022/12/15 07:17:09;;;;;;;347.63;117.33;;;;;;;;;;5036447;28;21564;-54
2022/12/15 07:19:35;;;;;;;388.03;133.27;;;;;;;;;;5043543;28;20638;-53
2022/12/15 07:22:01;;;;;;;389.97;118.83;;;;;;;;;;5043388;28;20188;-54
2022/12/15 07:24:27;;;;;;;426.63;143.17;;;;;;;;;;5035587;28;20207;-54
2022/12/15 07:26:53;;;;;;;428.20;137.23;;;;;;;;;;5041603;28;20277;-54
2022/12/15 07:29:19;;;;;;;369.20;131.73;;;;;;;;;;5044797;28;20238;-54
2022/12/15 07:31:45;;;;;;;332.37;115.13;;;;;;;;;;5036052;28;20183;-54
2022/12/15 07:34:11;;;;;;;484.93;144.27;;;;;;;;;;5034104;28;20210;-54
2022/12/15 07:36:37;;;;;;;426.27;147.73;;;;;;;;;;5042776;28;20927;-54
2022/12/15 07:39:04;;;;;;;445.10;134.27;;;;;;;;;;5036781;28;20222;-54
2022/12/15 07:41:34;;;;;;;405.33;121.63;;;;;;;;;;5030079;28;20218;-54
2022/12/15 07:44:01;;;;;;;343.57;70.00;;;;;;;;;;5046207;28;20241;-54
2022/12/15 07:46:27;;;;;;;355.23;73.77;;;;;;;;;;5042086;28;20615;-54
2022/12/15 07:48:53;;;;;;;450.67;99.43;;;;;;;;;;5033058;28;20210;-54
2022/12/15 07:51:20;;;;;;;344.13;68.77;;;;;;;;;;5038395;28;20213;-54
2022/12/15 07:53:46;;;;;;;300.03;59.80;;;;;;;;;;5048689;28;20218;-54
2022/12/15 07:56:12;;;;;;;282.30;65.77;;;;;;;;;;5051994;28;20264;-54
2022/12/15 07:58:38;;;;;;;324.57;68.90;;;;;;;;;;5058934;28;20186;-54
2022/12/15 08:01:05;;;;;;;395.90;82.77;;;;;;;;;;5057082;28;20634;-54
2022/12/15 08:03:31;;;;;;;352.17;72.00;;;;;;;;;;5054066;28;20222;-53
2022/12/15 08:05:57;;;;;;;336.13;68.97;;;;;;;;;;5063467;28;20218;-54
2022/12/15 08:08:23;;;;;;;361.40;71.20;;;;;;;;;;5061877;28;20622;-54
2022/12/15 08:10:49;;;;;;;332.00;67.07;;;;;;;;;;5063334;28;20297;-54
2022/12/15 08:13:15;;;;;;;277.20;57.37;;;;;;;;;;5065215;28;20277;-54
2022/12/15 08:15:41;;;;;;;282.93;64.40;;;;;;;;;;5065171;28;20858;-54
2022/12/15 08:18:08;;;;;;;304.43;55.90;;;;;;;;;;5064513;28;20222;-54
2022/12/15 08:20:34;;;;;;;349.87;67.17;;;;;;;;;;5064275;28;20277;-54
2022/12/15 08:23:00;;;;;;;314.90;59.93;;;;;;;;;;5063576;28;20230;-54
2022/12/15 08:25:29;;;;;;;323.73;62.83;;;;;;;;;;5064604;28;20187;-54
2022/12/15 08:27:56;;;;;;;307.43;58.77;;;;;;;;;;5039236;28;20223;-54
2022/12/15 08:30:22;;;;;;;328.13;65.73;;;;;;;;;;5056553;28;20574;-54
2022/12/15 08:32:48;;;;;;;266.33;56.33;;;;;;;;;;5078656;28;20238;-54
2022/12/15 08:35:14;;;;;;;296.00;59.13;;;;;;;;;;5063644;28;20211;-56
2022/12/15 08:37:40;;;;;;;323.70;61.60;;;;;;;;;;5063597;28;20327;-54
2022/12/15 08:40:06;;;;;;;322.03;61.40;;;;;;;;;;5060852;28;20179;-54
2022/12/15 08:42:33;;;;;;;322.13;63.80;;;;;;;;;;5064211;28;20214;-54
2022/12/15 08:44:59;;;;;;;322.97;61.50;;;;;;;;;;5060865;28;20225;-54
2022/12/15 08:47:25;;;;;;;316.83;63.37;;;;;;;;;;5061818;28;20218;-54
2022/12/15 08:49:53;;;;;;;304.23;56.97;;;;;;;;;;5054903;28;20948;-54
2022/12/15 08:52:19;;;;;;;340.33;65.80;;;;;;;;;;5056662;28;20757;-54
2022/12/15 08:54:45;;;;;;;293.43;54.70;;;;;;;;;;5072127;28;20315;-54
2022/12/15 08:57:11;;;;;;;341.90;71.47;;;;;;;;;;5065122;28;20234;-54
2022/12/15 08:59:37;;;;;;;315.67;63.63;;;;;;;;;;5062690;28;20223;-54
2022/12/15 09:02:03;;;;;;;364.00;70.80;;;;;;;;;;5056417;28;20766;-54
2022/12/15 09:04:29;;;;;;;305.97;56.60;;;;;;;;;;5054389;28;20197;-54
2022/12/15 09:06:55;;;;;;;354.10;69.03;;;;;;;;;;5047914;28;20218;-54
2022/12/15 09:09:21;;;;;;;308.80;57.83;;;;;;;;;;5041346;28;20241;-54
2022/12/15 09:11:47;;;;;;;274.93;60.73;;;;;;;;;;5037552;28;20791;-54
2022/12/15 09:14:14;;;;;;;337.17;68.40;;;;;;;;;;5043371;28;20250;-54
2022/12/15 09:16:40;;;;;;;304.03;58.53;;;;;;;;;;5059704;28;20754;-54
2022/12/15 09:19:07;;;;;;;308.53;58.87;;;;;;;;;;5067458;28;20223;-54
2022/12/15 09:21:33;;;;;;;304.20;60.43;;;;;;;;;;5060224;28;20424;-54
2022/12/15 09:24:00;;;;;;;344.30;72.63;;;;;;;;;;5060897;28;20295;-54
2022/12/15 09:26:26;;;;;;;331.33;76.10;;;;;;;;;;5049230;28;20369;-54
2022/12/15 09:28:54;;;;;;;318.63;67.80;;;;;;;;;;5047445;28;20239;-54
2022/12/15 09:31:24;;;;;;;398.13;90.17;;;;;;;;;;5054752;28;20186;-54
2022/12/15 09:33:54;;;;;;;329.17;67.00;;;;;;;;;;5052400;28;20214;-54
2022/12/15 09:36:20;;;;;;;355.00;69.33;;;;;;;;;;5057711;28;20709;-54
2022/12/15 09:38:46;;;;;;;333.90;65.33;;;;;;;;;;5058610;28;20210;-54
2022/12/15 09:41:13;;;;;;;246.40;47.13;;;;;;;;;;5051304;28;20217;-54
2022/12/15 09:43:59;;;;;;;323.10;69.00;;;;;;;;;;5056130;28;20222;-53
2022/12/15 09:46:26;;;;;;;390.03;80.37;;;;;;;;;;5055200;28;20590;-53
2022/12/15 09:48:53;;;;;;;297.43;60.97;;;;;;;;;;5050390;28;21236;-54
2022/12/15 09:51:20;;;;;;;328.47;63.53;;;;;;;;;;5058302;28;20264;-53
2022/12/15 09:53:46;;;;;;;316.37;61.47;;;;;;;;;;5056020;28;20206;-53
2022/12/15 09:56:19;;;;;;;329.43;64.40;;;;;;;;;;5053633;28;20715;-54
2022/12/15 09:59:04;;;;;;;366.10;74.20;;;;;;;;;;5045819;28;20599;-54
2022/12/15 10:01:36;;;;;;;309.67;67.77;;;;;;;;;;5041171;28;20233;-54
2022/12/15 10:04:15;;;;;;;348.37;75.70;;;;;;;;;;5037105;28;20260;-54
2022/12/15 10:06:44;;;;;;;303.17;61.17;;;;;;;;;;5036354;28;20281;-53
2022/12/15 10:09:13;;;;;;;336.13;74.17;;;;;;;;;;5034792;28;20289;-56
2022/12/15 10:11:51;;;;;;;355.93;101.47;;;;;;;;;;5042492;28;20211;-54
2022/12/15 10:14:20;;;;;;;397.27;133.33;;;;;;;;;;5036339;28;20230;-54
2022/12/15 10:16:58;;;;;;;402.93;137.70;;;;;;;;;;5032159;28;20233;-53
2022/12/15 10:19:36;;;;;;;393.00;128.90;;;;;;;;;;5030983;28;20662;-54
2022/12/15 10:22:05;;;;;;;406.87;148.57;;;;;;;;;;5038361;28;20242;-52
2022/12/15 10:24:32;;;;;;;403.23;150.70;;;;;;;;;;5043795;28;20598;-54
2022/12/15 10:27:16;;;;;;;423.73;161.97;;;;;;;;;;5039834;28;20246;-54
2022/12/15 10:29:44;;;;;;;427.83;168.77;;;;;;;;;;5035900;28;20297;-54
2022/12/15 10:32:18;;;;;;;422.67;156.77;;;;;;;;;;5041010;28;20669;-54
2022/12/15 10:34:44;;;;;;;466.77;172.50;;;;;;;;;;5032893;28;20202;-53
2022/12/15 10:37:16;;;;;;;441.40;143.43;;;;;;;;;;5059786;28;20497;-53
2022/12/15 10:39:43;;;;;;;324.17;112.80;;;;;;;;;;5051225;28;20230;-54
2022/12/15 10:42:11;;;;;;;351.83;120.53;;;;;;;;;;5044789;28;20305;-53
2022/12/15 10:44:39;;;;;;;283.30;103.07;;;;;;;;;;5054960;28;20210;-54
2022/12/15 10:47:09;;;;;;;312.33;104.07;;;;;;;;;;5057547;28;20219;-54
2022/12/15 10:49:35;;;;;;;339.27;113.43;;;;;;;;;;5046943;28;20183;-54
2022/12/15 10:52:01;;;;;;;485.13;159.00;;;;;;;;;;5042619;28;20655;-54
2022/12/15 10:54:31;;;;;;;400.63;134.70;;;;;;;;;;5019902;28;20394;-54
2022/12/15 10:56:58;;;;;;;329.77;115.37;;;;;;;;;;5032512;28;20215;-54
2022/12/15 10:59:35;;;;;;;362.90;125.83;;;;;;;;;;5039563;28;20674;-54
2022/12/15 11:02:19;;;;;;;377.37;119.60;;;;;;;;;;5035506;28;20867;-54
2022/12/15 11:04:58;;;;;;;387.23;123.63;;;;;;;;;;5032731;28;20305;-54
2022/12/15 11:07:27;;;;;;;342.87;110.63;;;;;;;;;;5021441;28;20210;-53
2022/12/15 11:09:58;;;;;;;276.00;80.77;;;;;;;;;;5021042;28;21178;-54
2022/12/15 11:15:22;;;;;;;347.33;106.83;;;;;;;;;;5020467;28;20234;-54
2022/12/15 11:18:06;;;;;;;519.17;176.50;;;;;;;;;;5045856;28;20293;-52
2022/12/15 11:20:34;;;;;;;481.67;158.60;;;;;;;;;;5029048;28;20219;-52
2022/12/15 11:23:04;;;;;;;334.90;118.97;;;;;;;;;;5023656;28;20318;-52
2022/12/15 11:25:41;;;;;;;324.70;107.33;;;;;;;;;;5055180;28;20250;-54
2022/12/15 11:28:14;;;;;;;282.53;93.20;;;;;;;;;;5026417;28;20219;-54
2022/12/15 11:30:45;;;;;;;347.23;104.10;;;;;;;;;;5027000;28;20238;-54
2022/12/15 11:33:11;;;;;;;355.47;112.07;;;;;;;;;;5038332;28;20707;-54
2022/12/15 11:35:46;;;;;;;327.93;106.73;;;;;;;;;;5041918;28;20203;-53
2022/12/15 11:38:17;;;;;;;390.17;95.20;;;;;;;;;;5031144;28;20715;-53
2022/12/15 11:40:43;;;;;;;246.03;50.70;;;;;;;;;;5042060;28;20631;-53
2022/12/15 11:43:25;;;;;;;272.40;52.07;;;;;;;;;;5045852;28;21047;-53
2022/12/15 11:45:51;;;;;;;273.33;49.43;;;;;;;;;;5052762;28;20718;-53
2022/12/15 11:48:19;;;;;;;239.23;40.77;;;;;;;;;;5053489;28;20254;-54
2022/12/15 11:50:54;;;;;;;326.43;60.37;;;;;;;;;;5035673;28;20504;-54
2022/12/15 11:53:30;;;;;;;364.23;66.03;;;;;;;;;;5043684;28;20229;-54
2022/12/15 11:56:17;;;;;;;337.93;59.63;;;;;;;;;;5036761;28;20305;-54
2022/12/15 11:59:02;;;;;;;247.43;43.27;;;;;;;;;;5044030;28;20189;-53
2022/12/15 12:01:27;;;;;;;234.53;42.63;;;;;;;;;;5051642;28;20198;-54
2022/12/15 12:04:17;;;;;;;259.80;49.20;;;;;;;;;;5059402;28;20227;-54
2022/12/15 12:07:02;;;;;;;271.63;52.17;;;;;;;;;;5050954;28;20498;-53
2022/12/15 12:09:55;;;;;;;247.00;50.50;;;;;;;;;;5069518;28;20207;-54
2022/12/15 12:12:25;;;;;;;265.03;53.37;;;;;;;;;;5043117;28;20856;-54
2022/12/15 12:15:10;;;;;;;273.70;58.43;;;;;;;;;;5047908;28;20318;-54
2022/12/15 12:17:42;;;;;;;261.37;54.80;;;;;;;;;;5048003;28;20753;-54
2022/12/15 12:20:14;;;;;;;271.80;60.47;;;;;;;;;;5041016;28;21101;-54
2022/12/15 12:22:42;;;;;;;278.47;65.00;;;;;;;;;;5031035;28;20691;-54
2022/12/15 12:25:18;;;;;;;270.70;67.03;;;;;;;;;;5029422;28;20207;-54
2022/12/15 12:27:48;;;;;;;177.97;39.53;;;;;;;;;;5038052;28;20761;-54
2022/12/15 12:30:14;;;;;;;300.67;86.87;;;;;;;;;;5039626;28;20298;-54
2022/12/15 12:32:53;;;;;;;296.13;101.23;;;;;;;;;;5042114;28;20321;-54
2022/12/15 12:35:38;;;;;;;287.37;100.30;;;;;;;;;;5044101;28;20207;-54
2022/12/15 12:38:05;;;;;;;319.23;127.33;;;;;;;;;;5030576;28;20605;-54
2022/12/15 12:40:40;;;;;;;331.10;134.83;;;;;;;;;;5041754;28;20183;-57
2022/12/15 12:43:11;;;;;;;371.27;152.80;;;;;;;;;;5042402;28;20224;-54
2022/12/15 12:45:41;;;;;;;314.13;134.07;;;;;;;;;;5051077;28;20257;-55
2022/12/15 12:48:13;;;;;;;333.77;136.80;;;;;;;;;;5049219;28;20211;-54
2022/12/15 12:50:39;;;;;;;361.70;155.40;;;;;;;;;;5058236;28;20635;-54
2022/12/15 12:53:06;;;;;;;353.87;142.20;;;;;;;;;;5053535;28;21022;-54
2022/12/15 12:55:32;;;;;;;302.17;128.37;;;;;;;;;;5069924;28;20178;-54
2022/12/15 12:57:58;;;;;;;341.57;148.97;;;;;;;;;;5035270;28;20233;-54
2022/12/15 13:00:28;;;;;;;408.87;171.87;;;;;;;;;;5039493;28;20230;-54
2022/12/15 13:03:13;;;;;;;391.50;171.37;;;;;;;;;;5045678;28;20234;-54
2022/12/15 13:05:40;;;;;;;383.93;172.27;;;;;;;;;;5052906;28;20309;-54
2022/12/15 13:08:09;;;;;;;353.63;154.43;;;;;;;;;;5059361;28;20219;-55
2022/12/15 13:10:36;;;;;;;318.37;142.63;;;;;;;;;;5064019;28;20274;-54
2022/12/15 13:13:20;;;;;;;423.63;182.90;;;;;;;;;;5057635;28;20203;-56
2022/12/15 13:15:49;;;;;;;669.23;294.53;;;;;;;;;;5036508;28;20225;-53
2022/12/15 13:18:17;;;;;;;436.17;179.70;;;;;;;;;;5052949;28;20740;-56
2022/12/15 13:20:44;;;;;;;504.47;211.77;;;;;;;;;;5032666;28;20261;-54
2022/12/15 13:23:19;;;;;;;458.63;193.97;;;;;;;;;;5031244;28;20292;-56
2022/12/15 13:25:46;;;;;;;464.13;183.30;;;;;;;;;;5035209;28;20423;-55
2022/12/15 13:28:31;;;;;;;479.00;199.37;;;;;;;;;;5037737;28;20199;-56
2022/12/15 13:31:15;;;;;;;446.43;183.27;;;;;;;;;;5036336;28;20247;-53
2022/12/15 13:33:54;;;;;;;373.17;153.53;;;;;;;;;;5038140;28;20586;-54
2022/12/15 13:36:39;;;;;;;419.20;174.77;;;;;;;;;;5051043;28;20407;-54
2022/12/15 13:39:11;;;;;;;404.10;164.13;;;;;;;;;;5056261;28;20291;-54
2022/12/15 13:41:57;;;;;;;449.50;173.93;;;;;;;;;;5047736;28;20219;-54
2022/12/15 13:44:23;;;;;;;414.57;152.27;;;;;;;;;;5038608;28;20309;-54
2022/12/15 13:46:50;;;;;;;457.43;175.00;;;;;;;;;;5043125;28;20265;-54
2022/12/15 13:49:24;;;;;;;400.47;134.03;;;;;;;;;;5049705;28;20187;-54
2022/12/15 13:51:50;;;;;;;364.47;115.13;;;;;;;;;;5048005;28;20721;-54
2022/12/15 13:54:16;;;;;;;360.27;91.57;;;;;;;;;;5042285;28;20219;-54
2022/12/15 13:56:42;;;;;;;365.03;89.30;;;;;;;;;;5044698;28;20599;-53
2022/12/15 13:59:24;;;;;;;370.00;94.93;;;;;;;;;;5035292;28;20691;-53
2022/12/15 14:01:51;;;;;;;393.37;118.20;;;;;;;;;;5039414;28;20215;-53
2022/12/15 14:04:17;;;;;;;394.40;119.37;;;;;;;;;;5032973;28;20274;-54
2022/12/15 14:06:47;;;;;;;381.60;120.90;;;;;;;;;;5044918;28;20208;-54
2022/12/15 14:09:15;;;;;;;413.27;102.30;;;;;;;;;;5027842;28;20227;-52
2022/12/15 14:11:42;;;;;;;381.97;89.43;;;;;;;;;;5036905;28;20214;-53
2022/12/15 14:14:15;;;;;;;415.03;101.20;;;;;;;;;;5034878;28;20221;-53
2022/12/15 14:16:43;;;;;;;414.77;103.40;;;;;;;;;;5027208;28;20670;-53
2022/12/15 14:19:16;;;;;;;454.27;112.73;;;;;;;;;;5017989;28;20270;-53
2022/12/15 14:21:50;;;;;;;444.83;107.07;;;;;;;;;;5022743;28;20216;-53
2022/12/15 14:24:21;;;;;;;464.33;114.50;;;;;;;;;;5018035;28;20211;-53
2022/12/15 14:26:47;;;;;;;350.33;78.17;;;;;;;;;;5028664;28;20265;-53
2022/12/15 14:29:13;;;;;;;383.50;83.73;;;;;;;;;;5030656;28;20211;-53
2022/12/15 14:31:39;;;;;;;458.90;114.63;;;;;;;;;;5037654;28;21673;-53
2022/12/15 14:34:12;;;;;;;382.73;93.67;;;;;;;;;;5035828;28;20559;-53
2022/12/15 14:36:40;;;;;;;405.30;97.23;;;;;;;;;;5043086;28;21465;-52
2022/12/15 14:39:10;;;;;;;382.43;95.10;;;;;;;;;;5045246;28;20715;-52
2022/12/15 14:41:38;;;;;;;389.70;87.43;;;;;;;;;;5045481;28;20227;-53
2022/12/15 14:44:06;;;;;;;402.20;92.30;;;;;;;;;;5043629;28;20230;-52
2022/12/15 14:46:32;;;;;;;465.20;109.97;;;;;;;;;;5040641;28;20293;-53
2022/12/15 14:49:03;;;;;;;327.33;71.90;;;;;;;;;;5051056;28;20289;-52
2022/12/15 14:51:31;;;;;;;461.77;109.07;;;;;;;;;;5044193;28;20673;-52
2022/12/15 14:53:57;;;;;;;351.30;79.07;;;;;;;;;;5039358;28;20964;-52
2022/12/15 14:56:25;;;;;;;422.77;101.97;;;;;;;;;;5043787;28;20207;-54
2022/12/15 14:59:16;;;;;;;341.37;78.93;;;;;;;;;;5039937;28;20310;-53
2022/12/15 15:01:53;;;;;;;453.60;107.40;;;;;;;;;;5034172;28;20183;-53
2022/12/15 15:04:32;;;;;;;385.40;88.30;;;;;;;;;;5047468;28;20203;-53
2022/12/15 15:06:59;;;;;;;366.10;98.23;;;;;;;;;;5045582;28;20207;-53
2022/12/15 15:09:27;;;;;;;360.40;93.70;;;;;;;;;;5026157;28;20278;-53
2022/12/15 15:11:55;;;;;;;303.27;88.20;;;;;;;;;;5031541;28;20687;-53
2022/12/15 15:14:23;;;;;;;422.33;103.03;;;;;;;;;;5035676;28;20246;-53
2022/12/15 15:17:00;;;;;;;363.90;87.33;;;;;;;;;;5034497;28;20245;-53
2022/12/15 15:19:26;;;;;;;380.53;89.63;;;;;;;;;;5043189;28;20191;-53
2022/12/15 15:21:52;;;;;;;417.20;106.47;;;;;;;;;;5040991;28;20268;-53
2022/12/15 15:24:21;;;;;;;396.43;92.97;;;;;;;;;;5030737;28;20215;-53
2022/12/15 15:26:47;;;;;;;316.60;72.87;;;;;;;;;;5043547;28;20251;-53
2022/12/15 15:29:36;;;;;;;384.53;87.50;;;;;;;;;;5050163;28;20225;-53
2022/12/15 15:32:15;;;;;;;405.90;117.87;;;;;;;;;;5039523;28;20232;-52
2022/12/15 15:34:42;;;;;;;373.47;100.47;;;;;;;;;;5037461;28;20179;-52
2022/12/15 15:37:18;;;;;;;455.63;129.97;;;;;;;;;;5028095;28;20212;-53
2022/12/15 15:39:45;;;;;;;302.53;87.73;;;;;;;;;;5040706;28;20268;-53
2022/12/15 15:42:14;;;;;;;420.70;111.13;;;;;;;;;;5042522;28;20607;-53
2022/12/15 15:44:40;;;;;;;422.03;126.13;;;;;;;;;;5035364;28;20214;-52
2022/12/15 15:47:12;;;;;;;428.47;112.80;;;;;;;;;;5031099;28;20215;-52
2022/12/15 15:49:38;;;;;;;431.13;120.40;;;;;;;;;;5024348;28;20202;-52
2022/12/15 15:52:04;;;;;;;469.27;126.20;;;;;;;;;;5020304;28;20197;-53
2022/12/15 15:54:34;;;;;;;460.00;129.27;;;;;;;;;;5030431;28;20215;-52
2022/12/15 15:57:01;;;;;;;456.30;131.33;;;;;;;;;;5034227;28;22263;-52
2022/12/15 15:59:27;;;;;;;285.10;78.30;;;;;;;;;;5037319;28;20206;-53
2022/12/15 16:01:58;;;;;;;372.67;86.23;;;;;;;;;;5016091;28;20435;-53
2022/12/15 16:04:25;;;;;;;404.97;92.53;;;;;;;;;;5023232;28;21789;-53
2022/12/15 16:06:51;;;;;;;373.60;87.23;;;;;;;;;;5024057;28;20276;-54
2022/12/15 16:09:17;;;;;;;400.13;90.37;;;;;;;;;;5019497;28;20250;-53
2022/12/15 16:11:44;;;;;;;415.00;94.93;;;;;;;;;;5018276;28;20212;-52
2022/12/15 16:14:15;;;;;;;353.83;75.17;;;;;;;;;;5019958;28;20217;-53
2022/12/15 16:16:41;;;;;;;409.93;97.23;;;;;;;;;;5020291;28;20556;-52
2022/12/15 16:19:07;;;;;;;433.13;95.97;;;;;;;;;;5021264;28;20205;-53
2022/12/15 16:21:34;;;;;;;457.67;106.30;;;;;;;;;;5015969;28;20219;-53
2022/12/15 16:24:03;;;;;;;411.47;106.80;;;;;;;;;;5023867;28;20226;-53
2022/12/15 16:26:30;;;;;;;352.90;79.17;;;;;;;;;;5027874;28;20696;-53
2022/12/15 16:28:56;;;;;;;361.37;80.90;;;;;;;;;;5043878;28;20234;-53
2022/12/15 16:31:35;;;;;;;418.07;93.63;;;;;;;;;;5037745;28;20183;-52
2022/12/15 16:34:01;;;;;;;326.40;69.10;;;;;;;;;;5033686;28;20234;-53